Time;durP1;ratioP1;P1;durP2;ratioP2;P2;SDS_P1;SDS_P2;PMS_P1;PMS_P2;Temp;Humidity;BMP_temperature;BMP_pressure;BME280_temperature;BME280_humidity;BME280_pressure;Samples;Min_cycle;Max_cycle;Signal;HPM_P1;HPM_P2
2023/01/25 00:00:05;;;;;;;24.75;14.63;;;;;;;;;;5115739;28;20555;-64
2023/01/25 00:02:32;;;;;;;24.25;14.90;;;;;;;;;;5115725;28;20194;-64
2023/01/25 00:04:59;;;;;;;20.70;13.30;;;;;;;;;;5115420;28;20288;-64
2023/01/25 00:07:26;;;;;;;20.25;13.60;;;;;;;;;;5115494;28;20191;-64
2023/01/25 00:09:53;;;;;;;18.52;13.85;;;;;;;;;;5115262;28;20190;-64
2023/01/25 00:12:20;;;;;;;17.60;13.02;;;;;;;;;;5115322;28;20222;-65
2023/01/25 00:14:48;;;;;;;17.58;12.93;;;;;;;;;;5115146;28;20570;-64
2023/01/25 00:17:15;;;;;;;20.27;12.88;;;;;;;;;;5115204;28;20201;-64
2023/01/25 00:19:42;;;;;;;17.52;13.43;;;;;;;;;;5115025;28;20186;-64
2023/01/25 00:22:09;;;;;;;21.42;13.63;;;;;;;;;;5114739;28;20358;-65
2023/01/25 00:24:36;;;;;;;20.75;14.05;;;;;;;;;;5115105;28;20197;-64
2023/01/25 00:27:03;;;;;;;20.95;13.80;;;;;;;;;;5115045;28;20573;-65
2023/01/25 00:29:30;;;;;;;22.35;13.85;;;;;;;;;;5114868;28;20559;-64
2023/01/25 00:32:08;;;;;;;22.95;13.27;;;;;;;;;;5114770;28;20197;-64
2023/01/25 00:34:43;;;;;;;18.63;13.07;;;;;;;;;;5114519;28;20668;-65
2023/01/25 00:37:14;;;;;;;19.50;13.15;;;;;;;;;;5114880;28;20194;-64
2023/01/25 00:39:41;;;;;;;22.50;13.40;;;;;;;;;;5114752;28;20559;-65
2023/01/25 00:42:09;;;;;;;22.65;13.45;;;;;;;;;;5114457;28;20704;-65
2023/01/25 00:44:36;;;;;;;19.73;14.18;;;;;;;;;;5114351;28;20223;-65
2023/01/25 00:47:04;;;;;;;20.27;13.60;;;;;;;;;;5114459;28;20202;-64
2023/01/25 00:49:32;;;;;;;19.17;12.98;;;;;;;;;;5114643;28;20195;-65
2023/01/25 00:51:59;;;;;;;23.20;13.43;;;;;;;;;;5114528;28;20224;-64
2023/01/25 00:54:26;;;;;;;17.83;13.00;;;;;;;;;;5114428;28;20199;-65
2023/01/25 00:56:55;;;;;;;17.95;12.70;;;;;;;;;;5114208;28;20222;-65
2023/01/25 00:59:22;;;;;;;18.02;12.75;;;;;;;;;;5114151;28;20737;-65
2023/01/25 01:01:49;;;;;;;17.50;13.05;;;;;;;;;;5114120;28;20565;-64
2023/01/25 01:04:18;;;;;;;18.50;13.05;;;;;;;;;;5114139;28;20278;-65
2023/01/25 01:06:45;;;;;;;20.25;12.75;;;;;;;;;;5114265;28;20190;-65
2023/01/25 01:09:17;;;;;;;19.15;12.35;;;;;;;;;;5114102;28;20198;-64
2023/01/25 01:11:44;;;;;;;21.70;14.85;;;;;;;;;;5114022;28;20290;-64
2023/01/25 01:14:11;;;;;;;19.77;13.60;;;;;;;;;;5113832;28;20191;-64
2023/01/25 01:16:38;;;;;;;19.58;13.38;;;;;;;;;;5114065;28;20229;-64
2023/01/25 01:19:05;;;;;;;20.92;13.88;;;;;;;;;;5114002;28;20380;-65
2023/01/25 01:21:33;;;;;;;23.52;13.85;;;;;;;;;;5113946;28;20193;-65
2023/01/25 01:24:00;;;;;;;22.98;13.68;;;;;;;;;;5113750;28;20220;-65
2023/01/25 01:26:27;;;;;;;22.35;12.95;;;;;;;;;;5113706;28;20198;-65
2023/01/25 01:28:54;;;;;;;20.38;14.02;;;;;;;;;;5113701;28;20269;-65
2023/01/25 01:31:22;;;;;;;20.60;14.43;;;;;;;;;;5113742;28;20191;-65
2023/01/25 01:33:50;;;;;;;21.60;15.07;;;;;;;;;;5113314;28;20186;-65
2023/01/25 01:36:18;;;;;;;15.57;12.20;;;;;;;;;;5113565;28;20222;-64
2023/01/25 01:38:46;;;;;;;17.95;13.32;;;;;;;;;;5113572;28;20277;-65
2023/01/25 01:41:13;;;;;;;20.42;13.43;;;;;;;;;;5113525;28;20650;-65
2023/01/25 01:43:40;;;;;;;27.38;13.95;;;;;;;;;;5113393;28;20202;-65
2023/01/25 01:46:10;;;;;;;21.67;14.15;;;;;;;;;;5113249;28;20321;-65
2023/01/25 01:48:38;;;;;;;21.02;13.82;;;;;;;;;;5113494;28;20316;-64
2023/01/25 01:51:11;;;;;;;22.48;14.05;;;;;;;;;;5113498;28;20190;-65
2023/01/25 01:53:38;;;;;;;22.70;13.80;;;;;;;;;;5113414;28;20281;-65
2023/01/25 01:56:10;;;;;;;18.05;13.70;;;;;;;;;;5113171;28;20257;-64
2023/01/25 01:58:37;;;;;;;19.65;13.68;;;;;;;;;;5113531;28;20549;-64
2023/01/25 02:01:04;;;;;;;20.42;14.07;;;;;;;;;;5113320;28;20285;-65
2023/01/25 02:03:32;;;;;;;23.25;12.95;;;;;;;;;;5113375;28;20186;-64
2023/01/25 02:06:01;;;;;;;21.15;13.02;;;;;;;;;;5113194;28;20197;-65
2023/01/25 02:08:30;;;;;;;19.33;13.20;;;;;;;;;;5113190;28;20281;-65
2023/01/25 02:10:58;;;;;;;19.42;12.25;;;;;;;;;;5113366;28;20445;-64
2023/01/25 02:13:26;;;;;;;22.63;14.75;;;;;;;;;;5113281;28;20308;-65
2023/01/25 02:15:55;;;;;;;21.25;12.98;;;;;;;;;;5113158;28;20215;-64
2023/01/25 02:18:22;;;;;;;22.98;14.15;;;;;;;;;;5113170;28;20216;-65
2023/01/25 02:20:50;;;;;;;20.40;13.25;;;;;;;;;;5113121;28;20559;-64
2023/01/25 02:23:21;;;;;;;17.48;12.88;;;;;;;;;;5113007;28;20266;-64
2023/01/25 02:25:49;;;;;;;18.90;13.73;;;;;;;;;;5113212;28;20186;-65
2023/01/25 02:28:18;;;;;;;19.58;13.45;;;;;;;;;;5113182;28;20190;-64
2023/01/25 02:30:46;;;;;;;17.85;12.20;;;;;;;;;;5113145;28;20550;-64
2023/01/25 02:33:13;;;;;;;22.15;13.77;;;;;;;;;;5112900;28;20236;-64
2023/01/25 02:35:42;;;;;;;17.85;12.35;;;;;;;;;;5112829;28;20304;-64
2023/01/25 02:38:09;;;;;;;20.88;13.50;;;;;;;;;;5113130;28;20553;-64
2023/01/25 02:40:40;;;;;;;20.40;13.85;;;;;;;;;;5113114;28;20197;-64
2023/01/25 02:43:09;;;;;;;17.40;13.23;;;;;;;;;;5113042;28;20201;-65
2023/01/25 02:45:36;;;;;;;18.30;14.02;;;;;;;;;;5115716;28;20236;-64
2023/01/25 02:48:03;;;;;;;18.08;12.50;;;;;;;;;;5116692;28;20191;-65
2023/01/25 02:50:29;;;;;;;17.58;13.05;;;;;;;;;;5116901;28;20198;-64
2023/01/25 02:52:56;;;;;;;21.52;13.90;;;;;;;;;;5116817;28;20221;-65
2023/01/25 02:55:23;;;;;;;15.23;11.93;;;;;;;;;;5116723;28;20213;-65
2023/01/25 02:57:50;;;;;;;18.30;13.88;;;;;;;;;;5116700;28;20210;-65
2023/01/25 03:00:19;;;;;;;18.67;12.23;;;;;;;;;;5116574;28;20290;-65
2023/01/25 03:02:46;;;;;;;18.70;12.60;;;;;;;;;;5116385;28;20186;-65
2023/01/25 03:05:13;;;;;;;18.80;13.60;;;;;;;;;;5116573;28;20273;-65
2023/01/25 03:07:39;;;;;;;19.50;12.70;;;;;;;;;;5116578;28;20190;-65
2023/01/25 03:10:07;;;;;;;23.45;13.73;;;;;;;;;;5116389;28;20194;-64
2023/01/25 03:12:34;;;;;;;19.02;13.75;;;;;;;;;;5116314;28;20190;-65
2023/01/25 03:15:01;;;;;;;20.73;13.25;;;;;;;;;;5116183;28;20189;-65
2023/01/25 03:17:30;;;;;;;18.88;13.43;;;;;;;;;;5116366;28;20221;-65
2023/01/25 03:19:56;;;;;;;20.98;13.70;;;;;;;;;;5116338;28;20236;-65
2023/01/25 03:22:23;;;;;;;22.40;14.10;;;;;;;;;;5116483;28;20197;-65
2023/01/25 03:24:50;;;;;;;17.15;13.30;;;;;;;;;;5116174;28;20593;-65
2023/01/25 03:27:18;;;;;;;19.88;13.95;;;;;;;;;;5116053;28;20187;-64
2023/01/25 03:29:45;;;;;;;22.88;14.55;;;;;;;;;;5115880;28;20194;-64
2023/01/25 03:32:12;;;;;;;22.42;13.25;;;;;;;;;;5116103;28;20186;-65
2023/01/25 03:34:40;;;;;;;20.77;12.43;;;;;;;;;;5116030;28;20198;-65
2023/01/25 03:37:07;;;;;;;22.25;14.15;;;;;;;;;;5115870;28;20581;-65
2023/01/25 03:39:34;;;;;;;20.08;13.75;;;;;;;;;;5115873;28;20190;-64
2023/01/25 03:42:01;;;;;;;22.45;13.70;;;;;;;;;;5115719;28;20286;-64
2023/01/25 03:44:28;;;;;;;17.67;13.38;;;;;;;;;;5115438;28;20559;-65
2023/01/25 03:46:55;;;;;;;20.67;14.48;;;;;;;;;;5115790;28;20596;-64
2023/01/25 03:49:22;;;;;;;22.73;14.82;;;;;;;;;;5115748;28;20190;-64
2023/01/25 03:51:50;;;;;;;25.23;15.07;;;;;;;;;;5115590;28;20186;-65
2023/01/25 03:54:17;;;;;;;23.00;15.05;;;;;;;;;;5115480;28;20654;-64
2023/01/25 03:56:44;;;;;;;20.15;13.98;;;;;;;;;;5114857;28;20222;-65
2023/01/25 03:59:11;;;;;;;24.50;14.88;;;;;;;;;;5115694;28;20191;-64
2023/01/25 04:01:38;;;;;;;16.92;13.27;;;;;;;;;;5115704;28;20197;-65
2023/01/25 04:04:05;;;;;;;26.63;15.20;;;;;;;;;;5115418;28;20190;-64
2023/01/25 04:06:32;;;;;;;21.95;15.90;;;;;;;;;;5115338;28;20229;-64
2023/01/25 04:09:00;;;;;;;17.17;13.48;;;;;;;;;;5115253;28;20190;-65
2023/01/25 04:11:27;;;;;;;20.30;15.60;;;;;;;;;;5115044;28;20576;-65
2023/01/25 04:13:54;;;;;;;27.67;15.10;;;;;;;;;;5115312;28;20190;-64
2023/01/25 04:16:21;;;;;;;23.30;14.57;;;;;;;;;;5115083;28;20222;-64
2023/01/25 04:18:48;;;;;;;23.55;15.30;;;;;;;;;;5114816;28;20549;-65
2023/01/25 04:21:15;;;;;;;19.55;13.85;;;;;;;;;;5114943;28;20190;-64
2023/01/25 04:23:41;;;;;;;18.17;13.07;;;;;;;;;;5114934;28;20189;-65
2023/01/25 04:26:11;;;;;;;23.77;15.15;;;;;;;;;;5114877;28;20629;-65
2023/01/25 04:28:38;;;;;;;26.70;17.55;;;;;;;;;;5114975;28;20190;-65
2023/01/25 04:31:05;;;;;;;27.50;17.33;;;;;;;;;;5114834;28;20273;-65
2023/01/25 04:33:32;;;;;;;23.20;14.32;;;;;;;;;;5114610;28;20684;-65
2023/01/25 04:36:00;;;;;;;24.27;13.70;;;;;;;;;;5115027;28;20290;-65
2023/01/25 04:38:27;;;;;;;20.58;14.27;;;;;;;;;;5114816;28;20705;-65
2023/01/25 04:40:54;;;;;;;23.75;14.88;;;;;;;;;;5114926;28;20205;-65
2023/01/25 04:43:23;;;;;;;19.83;13.13;;;;;;;;;;5114854;28;20190;-65
2023/01/25 04:45:50;;;;;;;26.77;14.18;;;;;;;;;;5114370;28;20228;-65
2023/01/25 04:48:17;;;;;;;21.02;14.23;;;;;;;;;;5114547;28;20213;-65
2023/01/25 04:50:44;;;;;;;18.25;14.15;;;;;;;;;;5114367;28;20628;-65
2023/01/25 04:53:12;;;;;;;18.88;13.50;;;;;;;;;;5114249;28;20334;-65
2023/01/25 04:55:39;;;;;;;23.30;15.65;;;;;;;;;;5114441;28;20199;-65
2023/01/25 04:58:06;;;;;;;18.88;15.13;;;;;;;;;;5114324;28;20226;-64
2023/01/25 05:00:34;;;;;;;24.80;15.38;;;;;;;;;;5114285;28;20614;-65
2023/01/25 05:03:01;;;;;;;18.52;14.20;;;;;;;;;;5113959;28;20233;-65
2023/01/25 05:05:28;;;;;;;21.20;14.98;;;;;;;;;;5114081;28;20191;-65
2023/01/25 05:07:55;;;;;;;25.02;15.05;;;;;;;;;;5113399;28;20198;-65
2023/01/25 05:10:23;;;;;;;23.00;15.38;;;;;;;;;;5114071;28;20194;-64
2023/01/25 05:12:50;;;;;;;21.70;14.45;;;;;;;;;;5114112;28;20692;-65
2023/01/25 05:15:17;;;;;;;23.23;16.05;;;;;;;;;;5113965;28;20187;-65
2023/01/25 05:17:45;;;;;;;21.80;15.17;;;;;;;;;;5113685;28;20221;-65
2023/01/25 05:20:12;;;;;;;24.77;15.18;;;;;;;;;;5113649;28;20823;-65
2023/01/25 05:22:39;;;;;;;24.60;14.85;;;;;;;;;;5113635;28;20712;-65
2023/01/25 05:26:59;;;;;;;18.00;14.65;;;;;;;;;;5113875;28;20285;-65
2023/01/25 05:27:52;;;;;;;23.58;15.65;;;;;;;;;;5113699;28;20194;-65
2023/01/25 05:30:19;;;;;;;25.83;15.45;;;;;;;;;;5113670;28;20606;-65
2023/01/25 05:32:48;;;;;;;24.13;14.90;;;;;;;;;;5113542;28;20197;-65
2023/01/25 05:35:15;;;;;;;30.55;16.42;;;;;;;;;;5113770;28;20284;-65
2023/01/25 05:37:42;;;;;;;23.52;15.10;;;;;;;;;;5113539;28;20241;-65
2023/01/25 05:40:09;;;;;;;24.27;15.80;;;;;;;;;;5113556;28;20194;-65
2023/01/25 05:42:36;;;;;;;25.85;15.93;;;;;;;;;;5113511;28;20646;-65
2023/01/25 05:45:11;;;;;;;24.77;16.30;;;;;;;;;;5113890;28;20226;-70
2023/01/25 05:47:38;;;;;;;24.40;16.92;;;;;;;;;;5113234;28;20229;-64
2023/01/25 05:50:07;;;;;;;25.23;16.45;;;;;;;;;;5113563;28;20190;-65
2023/01/25 05:52:34;;;;;;;21.05;15.35;;;;;;;;;;5113264;28;20202;-65
2023/01/25 05:55:01;;;;;;;24.90;16.33;;;;;;;;;;5113310;28;20669;-65
2023/01/25 05:57:28;;;;;;;23.45;15.15;;;;;;;;;;5113271;28;20217;-65
2023/01/25 05:59:55;;;;;;;22.75;15.65;;;;;;;;;;5113205;28;20191;-64
2023/01/25 06:02:22;;;;;;;25.35;16.67;;;;;;;;;;5113283;28;20281;-64
2023/01/25 06:04:49;;;;;;;22.65;16.15;;;;;;;;;;5113245;28;20277;-65
2023/01/25 06:07:17;;;;;;;22.52;15.80;;;;;;;;;;5113260;28;20554;-65
2023/01/25 06:09:44;;;;;;;26.35;16.85;;;;;;;;;;5113190;28;20195;-65
2023/01/25 06:12:11;;;;;;;27.67;17.17;;;;;;;;;;5112979;28;20657;-65
2023/01/25 06:14:38;;;;;;;26.20;17.55;;;;;;;;;;5113223;28;20277;-65
2023/01/25 06:17:05;;;;;;;23.55;16.20;;;;;;;;;;5112890;28;20761;-64
2023/01/25 06:19:32;;;;;;;23.83;15.80;;;;;;;;;;5116210;28;20190;-65
2023/01/25 06:21:59;;;;;;;23.30;16.52;;;;;;;;;;5117240;28;20197;-65
2023/01/25 06:24:27;;;;;;;31.50;18.63;;;;;;;;;;5117068;28;20316;-64
2023/01/25 06:26:54;;;;;;;24.10;15.20;;;;;;;;;;5116824;28;20227;-64
2023/01/25 06:29:21;;;;;;;25.67;15.80;;;;;;;;;;5117216;28;20692;-65
2023/01/25 06:31:48;;;;;;;25.75;16.85;;;;;;;;;;5117032;28;20195;-65
2023/01/25 06:34:15;;;;;;;24.40;16.98;;;;;;;;;;5116835;28;20334;-65
2023/01/25 06:36:42;;;;;;;26.38;17.30;;;;;;;;;;5116773;28;20236;-65
2023/01/25 06:39:10;;;;;;;25.30;15.82;;;;;;;;;;5117215;28;20187;-65
2023/01/25 06:41:38;;;;;;;26.63;16.60;;;;;;;;;;5116510;28;20298;-65
2023/01/25 06:44:05;;;;;;;23.17;15.70;;;;;;;;;;5116585;28;20258;-65
2023/01/25 06:46:32;;;;;;;23.00;16.15;;;;;;;;;;5116612;28;20194;-65
2023/01/25 06:48:59;;;;;;;27.08;17.52;;;;;;;;;;5116433;28;20186;-65
2023/01/25 06:51:26;;;;;;;24.95;15.50;;;;;;;;;;5116370;28;20273;-65
2023/01/25 06:53:53;;;;;;;22.15;14.52;;;;;;;;;;5116299;28;20191;-65
2023/01/25 06:56:21;;;;;;;25.20;15.80;;;;;;;;;;5116478;28;20191;-65
2023/01/25 06:58:50;;;;;;;25.58;16.77;;;;;;;;;;5116486;28;20218;-65
2023/01/25 07:01:18;;;;;;;24.42;15.65;;;;;;;;;;5116455;28;20191;-65
2023/01/25 07:03:48;;;;;;;28.10;17.23;;;;;;;;;;5116182;28;20191;-64
2023/01/25 07:06:15;;;;;;;25.58;15.95;;;;;;;;;;5116244;28;20675;-65
2023/01/25 07:08:42;;;;;;;27.60;15.98;;;;;;;;;;5116174;28;20195;-65
2023/01/25 07:11:12;;;;;;;27.30;17.35;;;;;;;;;;5116312;28;20286;-65
2023/01/25 07:13:39;;;;;;;24.42;17.48;;;;;;;;;;5116261;28;20278;-65
2023/01/25 07:16:09;;;;;;;26.20;17.33;;;;;;;;;;5116085;28;20218;-65
2023/01/25 07:18:36;;;;;;;27.30;15.98;;;;;;;;;;5116073;28;20302;-64
2023/01/25 07:21:04;;;;;;;25.13;16.45;;;;;;;;;;5115927;28;20201;-65
2023/01/25 07:23:32;;;;;;;24.40;16.45;;;;;;;;;;5115833;28;20187;-65
2023/01/25 07:26:00;;;;;;;31.67;18.70;;;;;;;;;;5115918;28;20195;-64
2023/01/25 07:28:27;;;;;;;22.52;15.95;;;;;;;;;;5116001;28;20296;-65
2023/01/25 07:30:54;;;;;;;26.00;15.65;;;;;;;;;;5114857;28;20196;-65
2023/01/25 07:33:22;;;;;;;24.33;15.23;;;;;;;;;;5115741;28;20191;-65
2023/01/25 07:35:50;;;;;;;21.15;12.90;;;;;;;;;;5115667;28;20280;-65
2023/01/25 07:38:17;;;;;;;18.33;12.82;;;;;;;;;;5115522;28;20685;-65
2023/01/25 07:40:44;;;;;;;21.60;13.52;;;;;;;;;;5115751;28;20197;-65
2023/01/25 07:43:11;;;;;;;24.55;15.10;;;;;;;;;;5115583;28;20194;-65
2023/01/25 07:45:37;;;;;;;19.30;13.45;;;;;;;;;;5115281;28;20694;-65
2023/01/25 07:48:09;;;;;;;20.92;13.15;;;;;;;;;;5115564;28;20200;-65
2023/01/25 07:50:38;;;;;;;17.70;12.63;;;;;;;;;;5115693;28;20550;-66
2023/01/25 07:53:05;;;;;;;18.08;13.35;;;;;;;;;;5115469;28;20194;-65
2023/01/25 07:55:32;;;;;;;18.85;12.73;;;;;;;;;;5115551;28;20303;-65
2023/01/25 07:57:59;;;;;;;21.67;14.40;;;;;;;;;;5115302;28;20309;-65
2023/01/25 08:00:26;;;;;;;21.25;13.77;;;;;;;;;;5115279;28;20201;-65
2023/01/25 08:02:53;;;;;;;22.05;15.75;;;;;;;;;;5115514;28;20313;-65
2023/01/25 08:05:20;;;;;;;20.35;15.07;;;;;;;;;;5115414;28;20594;-65
2023/01/25 08:07:48;;;;;;;18.05;13.98;;;;;;;;;;5115073;28;20285;-61
2023/01/25 08:10:16;;;;;;;19.70;14.25;;;;;;;;;;5114489;28;20285;-61
2023/01/25 08:12:45;;;;;;;23.75;14.45;;;;;;;;;;5114959;28;20194;-57
2023/01/25 08:15:12;;;;;;;26.73;18.05;;;;;;;;;;5113393;28;20956;-59
2023/01/25 08:17:39;;;;;;;24.33;16.48;;;;;;;;;;5114996;27;20457;-60
2023/01/25 08:20:07;;;;;;;19.90;15.98;;;;;;;;;;5116583;27;20226;-61
2023/01/25 08:22:34;;;;;;;24.38;17.63;;;;;;;;;;5114908;28;20190;-60
2023/01/25 08:25:02;;;;;;;23.58;15.80;;;;;;;;;;5135256;27;20189;-59
2023/01/25 08:27:29;;;;;;;20.58;13.80;;;;;;;;;;5135295;27;20217;-60
2023/01/25 08:29:56;;;;;;;22.92;14.02;;;;;;;;;;5135599;27;20281;-60
2023/01/25 08:32:23;;;;;;;19.65;15.50;;;;;;;;;;5128102;27;20486;-59
2023/01/25 08:34:50;;;;;;;22.42;14.10;;;;;;;;;;5123076;27;20643;-59
2023/01/25 08:37:17;;;;;;;29.73;13.98;;;;;;;;;;5124482;27;20189;-60
2023/01/25 08:39:44;;;;;;;18.92;13.02;;;;;;;;;;5121937;27;20182;-60
2023/01/25 08:42:12;;;;;;;21.23;13.95;;;;;;;;;;5120532;27;20197;-60
2023/01/25 08:44:39;;;;;;;19.05;12.38;;;;;;;;;;5114104;28;20700;-60
2023/01/25 08:47:06;;;;;;;19.70;12.63;;;;;;;;;;5114576;28;20273;-60
2023/01/25 08:49:34;;;;;;;17.38;11.60;;;;;;;;;;5114479;28;20189;-59
2023/01/25 08:52:01;;;;;;;22.67;13.25;;;;;;;;;;5114476;28;20187;-60
2023/01/25 08:54:28;;;;;;;20.25;12.30;;;;;;;;;;5114129;28;20691;-60
2023/01/25 08:56:55;;;;;;;17.38;12.18;;;;;;;;;;5114192;28;20194;-60
2023/01/25 08:59:23;;;;;;;22.38;14.07;;;;;;;;;;5114251;28;20556;-60
2023/01/25 09:01:50;;;;;;;22.45;13.80;;;;;;;;;;5114050;28;20197;-60
2023/01/25 09:04:17;;;;;;;17.60;11.90;;;;;;;;;;5114101;28;20196;-59
2023/01/25 09:06:44;;;;;;;20.40;12.30;;;;;;;;;;5113919;28;20194;-60
2023/01/25 09:09:12;;;;;;;18.83;12.45;;;;;;;;;;5113894;28;20281;-60
2023/01/25 09:11:39;;;;;;;21.65;14.82;;;;;;;;;;5114065;27;20188;-60
2023/01/25 09:14:06;;;;;;;23.00;16.15;;;;;;;;;;5123737;27;20192;-60
2023/01/25 09:16:35;;;;;;;18.27;13.95;;;;;;;;;;5122417;27;20198;-60
2023/01/25 09:19:02;;;;;;;22.27;13.85;;;;;;;;;;5123047;27;20212;-61
2023/01/25 09:21:30;;;;;;;19.27;11.50;;;;;;;;;;5124583;27;20192;-61
2023/01/25 09:23:57;;;;;;;17.02;11.75;;;;;;;;;;5132009;27;20207;-61
2023/01/25 09:26:23;;;;;;;20.50;13.50;;;;;;;;;;5134431;27;20195;-61
2023/01/25 09:28:51;;;;;;;22.58;15.20;;;;;;;;;;5128146;27;20269;-61
2023/01/25 09:31:19;;;;;;;22.50;14.80;;;;;;;;;;5126993;27;20280;-62
2023/01/25 09:33:48;;;;;;;26.65;15.20;;;;;;;;;;5120245;27;20561;-60
2023/01/25 09:36:15;;;;;;;29.88;18.35;;;;;;;;;;5112982;28;20189;-60
2023/01/25 09:38:42;;;;;;;34.25;19.50;;;;;;;;;;5113312;28;20298;-61
2023/01/25 09:41:18;;;;;;;32.33;19.83;;;;;;;;;;5113339;28;20277;-60
2023/01/25 09:43:55;;;;;;;26.55;16.83;;;;;;;;;;5113421;28;20209;-59
2023/01/25 09:46:24;;;;;;;36.55;20.50;;;;;;;;;;5113151;28;20312;-64
2023/01/25 09:48:55;;;;;;;36.80;20.30;;;;;;;;;;5113187;28;20193;-65
2023/01/25 09:51:26;;;;;;;32.60;21.13;;;;;;;;;;5113550;28;20615;-61
2023/01/25 09:53:55;;;;;;;35.95;18.83;;;;;;;;;;5112737;28;20186;-62
2023/01/25 09:56:23;;;;;;;30.90;18.73;;;;;;;;;;5113202;28;20199;-59
2023/01/25 09:58:52;;;;;;;31.58;18.05;;;;;;;;;;5113156;28;20607;-61
2023/01/25 10:01:23;;;;;;;32.65;17.67;;;;;;;;;;5113181;28;20286;-60
2023/01/25 10:03:53;;;;;;;35.85;21.73;;;;;;;;;;5112879;28;20191;-59
2023/01/25 10:06:23;;;;;;;34.67;19.48;;;;;;;;;;5113293;28;20240;-59
2023/01/25 10:08:52;;;;;;;35.33;18.92;;;;;;;;;;5113312;28;20640;-59
2023/01/25 10:11:22;;;;;;;30.00;16.17;;;;;;;;;;5113179;28;20201;-60
2023/01/25 10:13:49;;;;;;;26.17;16.55;;;;;;;;;;5112903;28;20194;-62
2023/01/25 10:16:20;;;;;;;26.95;15.98;;;;;;;;;;5113063;28;20252;-62
2023/01/25 10:18:54;;;;;;;25.73;14.98;;;;;;;;;;5113111;28;20317;-61
2023/01/25 10:21:27;;;;;;;22.58;14.18;;;;;;;;;;5113164;28;20285;-58
2023/01/25 10:24:05;;;;;;;24.33;14.68;;;;;;;;;;5112650;28;20198;-59
2023/01/25 10:26:34;;;;;;;26.15;15.65;;;;;;;;;;5112913;28;20194;-61
2023/01/25 10:29:03;;;;;;;27.35;16.33;;;;;;;;;;5112940;28;20203;-60
2023/01/25 10:31:34;;;;;;;23.48;15.20;;;;;;;;;;5112932;28;20190;-60
2023/01/25 10:34:02;;;;;;;20.15;13.05;;;;;;;;;;5112634;28;20237;-60
2023/01/25 10:36:31;;;;;;;25.17;13.52;;;;;;;;;;5112774;28;20281;-60
2023/01/25 10:39:00;;;;;;;22.85;12.85;;;;;;;;;;5112635;28;20218;-60
2023/01/25 10:41:29;;;;;;;19.38;13.00;;;;;;;;;;5112896;28;20282;-59
2023/01/25 10:46:38;;;;;;;20.27;13.10;;;;;;;;;;5111612;28;20190;-56
2023/01/25 10:49:14;;;;;;;20.05;11.38;;;;;;;;;;5112419;28;20577;-60
2023/01/25 10:51:42;;;;;;;19.23;12.43;;;;;;;;;;5112771;28;20190;-58
2023/01/25 10:54:14;;;;;;;19.25;12.57;;;;;;;;;;5112746;28;20553;-59
2023/01/25 10:56:41;;;;;;;19.57;12.20;;;;;;;;;;5112603;28;20665;-59
2023/01/25 10:59:15;;;;;;;21.70;12.95;;;;;;;;;;5112587;28;20480;-57
2023/01/25 11:01:43;;;;;;;22.77;12.75;;;;;;;;;;5112465;28;20193;-62
2023/01/25 11:04:22;;;;;;;21.20;12.50;;;;;;;;;;5112742;28;20340;-61
2023/01/25 11:06:51;;;;;;;27.40;12.57;;;;;;;;;;5115422;28;20190;-60
2023/01/25 11:09:31;;;;;;;20.85;12.40;;;;;;;;;;5115917;28;20186;-59
2023/01/25 11:11:59;;;;;;;21.55;13.65;;;;;;;;;;5116213;28;20201;-62
2023/01/25 11:14:27;;;;;;;17.58;12.15;;;;;;;;;;5116051;28;20280;-61
2023/01/25 11:16:54;;;;;;;22.65;14.70;;;;;;;;;;5116253;28;20195;-60
2023/01/25 11:19:25;;;;;;;23.05;14.80;;;;;;;;;;5115814;28;20222;-59
2023/01/25 11:21:54;;;;;;;24.30;13.57;;;;;;;;;;5116172;28;20193;-60
2023/01/25 11:24:21;;;;;;;26.65;14.63;;;;;;;;;;5115962;28;20649;-61
2023/01/25 11:26:48;;;;;;;24.02;13.20;;;;;;;;;;5115510;28;20195;-61
2023/01/25 11:29:16;;;;;;;22.93;14.00;;;;;;;;;;5115839;28;20524;-60
2023/01/25 11:31:45;;;;;;;23.63;16.70;;;;;;;;;;5115105;28;20447;-60
2023/01/25 11:34:13;;;;;;;22.08;13.13;;;;;;;;;;5115886;28;20261;-61
2023/01/25 11:36:44;;;;;;;24.75;13.93;;;;;;;;;;5115806;28;20186;-61
2023/01/25 11:39:19;;;;;;;22.83;12.57;;;;;;;;;;5115541;28;20231;-60
2023/01/25 11:41:53;;;;;;;20.80;14.30;;;;;;;;;;5114533;28;20542;-58
2023/01/25 11:44:27;;;;;;;23.13;15.23;;;;;;;;;;5115481;28;20196;-62
2023/01/25 11:47:00;;;;;;;21.58;13.65;;;;;;;;;;5115340;28;20194;-52
2023/01/25 11:49:41;;;;;;;18.52;12.60;;;;;;;;;;5115521;28;20200;-59
2023/01/25 11:52:16;;;;;;;20.38;12.20;;;;;;;;;;5115632;28;20324;-58
2023/01/25 11:54:47;;;;;;;20.10;14.43;;;;;;;;;;5114893;28;20455;-61
2023/01/25 11:57:26;;;;;;;22.83;14.68;;;;;;;;;;5115327;28;20194;-63
2023/01/25 11:59:59;;;;;;;21.25;13.00;;;;;;;;;;5115359;28;20317;-63
2023/01/25 12:02:32;;;;;;;23.25;14.55;;;;;;;;;;5115276;28;20576;-62
2023/01/25 12:05:05;;;;;;;28.13;16.80;;;;;;;;;;5115266;28;20548;-60
2023/01/25 12:07:39;;;;;;;20.40;13.77;;;;;;;;;;5115343;28;20222;-61
2023/01/25 12:10:16;;;;;;;20.98;13.98;;;;;;;;;;5115201;28;20197;-62
2023/01/25 12:12:45;;;;;;;24.13;13.52;;;;;;;;;;5114944;28;20276;-62
2023/01/25 12:15:21;;;;;;;21.90;14.48;;;;;;;;;;5115194;28;20186;-60
2023/01/25 12:17:57;;;;;;;25.75;14.02;;;;;;;;;;5114758;28;20276;-61
2023/01/25 12:20:30;;;;;;;22.23;12.60;;;;;;;;;;5114833;28;20217;-61
2023/01/25 12:23:06;;;;;;;22.20;14.90;;;;;;;;;;5114821;28;20198;-65
2023/01/25 12:25:40;;;;;;;20.73;13.45;;;;;;;;;;5115075;28;20205;-63
2023/01/25 12:28:10;;;;;;;21.58;15.02;;;;;;;;;;5114919;28;20565;-64
2023/01/25 12:30:42;;;;;;;19.02;13.70;;;;;;;;;;5114755;28;20706;-61
2023/01/25 12:33:11;;;;;;;20.17;13.07;;;;;;;;;;5114568;28;20193;-61
2023/01/25 12:35:40;;;;;;;23.75;15.88;;;;;;;;;;5114498;28;20190;-64
2023/01/25 12:38:10;;;;;;;21.58;14.30;;;;;;;;;;5114743;28;20190;-61
2023/01/25 12:40:44;;;;;;;23.92;13.70;;;;;;;;;;5114298;28;20228;-63
2023/01/25 12:43:15;;;;;;;21.98;13.50;;;;;;;;;;5114484;28;20284;-57
2023/01/25 12:45:45;;;;;;;23.67;14.18;;;;;;;;;;5114267;28;20310;-60
2023/01/25 12:48:15;;;;;;;22.60;15.60;;;;;;;;;;5114060;28;20259;-60
2023/01/25 12:50:45;;;;;;;24.83;14.73;;;;;;;;;;5114632;28;20456;-64
2023/01/25 12:53:18;;;;;;;23.85;14.63;;;;;;;;;;5114266;28;20194;-60
2023/01/25 12:55:47;;;;;;;27.92;16.33;;;;;;;;;;5113756;28;20775;-59
2023/01/25 12:58:17;;;;;;;23.23;15.00;;;;;;;;;;5114138;28;20196;-60
2023/01/25 13:00:48;;;;;;;22.67;13.93;;;;;;;;;;5113882;28;20577;-61
2023/01/25 13:03:22;;;;;;;25.80;17.67;;;;;;;;;;5114146;28;20733;-60
2023/01/25 13:05:51;;;;;;;21.95;14.00;;;;;;;;;;5114142;28;20284;-59
2023/01/25 13:08:22;;;;;;;24.40;14.45;;;;;;;;;;5114024;28;20282;-57
2023/01/25 13:10:53;;;;;;;21.17;13.65;;;;;;;;;;5113871;28;20248;-60
2023/01/25 13:13:21;;;;;;;19.83;13.25;;;;;;;;;;5113488;28;20282;-62
2023/01/25 13:15:49;;;;;;;26.20;15.55;;;;;;;;;;5113791;28;20198;-60
2023/01/25 13:18:34;;;;;;;24.00;15.75;;;;;;;;;;5113642;28;20194;-60
2023/01/25 13:21:03;;;;;;;25.55;15.23;;;;;;;;;;5113722;28;20186;-59
2023/01/25 13:23:34;;;;;;;30.67;16.98;;;;;;;;;;5113505;28;20198;-59
2023/01/25 13:26:20;;;;;;;24.40;15.20;;;;;;;;;;5113500;28;20549;-61
2023/01/25 13:28:48;;;;;;;23.20;14.52;;;;;;;;;;5112744;28;20452;-59
2023/01/25 13:31:30;;;;;;;26.00;15.02;;;;;;;;;;5113662;28;20194;-59
2023/01/25 13:33:59;;;;;;;18.55;14.32;;;;;;;;;;5112707;28;20201;-60
2023/01/25 13:36:38;;;;;;;23.13;13.68;;;;;;;;;;5113698;28;20318;-60
2023/01/25 13:39:20;;;;;;;25.88;15.63;;;;;;;;;;5113510;28;20573;-60
2023/01/25 13:41:58;;;;;;;21.00;13.75;;;;;;;;;;5112480;28;20213;-61
2023/01/25 13:44:28;;;;;;;24.05;14.57;;;;;;;;;;5112743;28;20201;-61
2023/01/25 13:46:55;;;;;;;23.15;15.80;;;;;;;;;;5113465;28;20221;-59
2023/01/25 13:49:25;;;;;;;24.00;14.23;;;;;;;;;;5113172;28;20201;-61
2023/01/25 13:51:52;;;;;;;26.83;16.23;;;;;;;;;;5113151;28;20201;-60
2023/01/25 13:54:19;;;;;;;21.63;14.80;;;;;;;;;;5113199;28;20671;-59
2023/01/25 13:56:46;;;;;;;22.60;13.13;;;;;;;;;;5112617;28;20285;-60
2023/01/25 13:59:27;;;;;;;21.95;13.00;;;;;;;;;;5113376;28;20213;-60
2023/01/25 14:01:55;;;;;;;20.40;12.52;;;;;;;;;;5113287;28;20193;-61
2023/01/25 14:04:23;;;;;;;21.52;13.90;;;;;;;;;;5113060;28;20186;-61
2023/01/25 14:06:49;;;;;;;25.00;14.75;;;;;;;;;;5113108;28;20198;-58
2023/01/25 14:09:18;;;;;;;22.65;14.82;;;;;;;;;;5112982;28;20265;-58
2023/01/25 14:11:46;;;;;;;22.98;14.90;;;;;;;;;;5113261;28;20239;-58
2023/01/25 14:14:21;;;;;;;24.65;15.18;;;;;;;;;;5112944;28;20276;-57
2023/01/25 14:17:01;;;;;;;24.48;14.35;;;;;;;;;;5113069;28;20192;-59
2023/01/25 14:19:28;;;;;;;27.30;15.02;;;;;;;;;;5112317;28;20221;-59
2023/01/25 14:22:10;;;;;;;24.05;15.20;;;;;;;;;;5112501;28;20666;-58
2023/01/25 14:24:37;;;;;;;23.33;14.20;;;;;;;;;;5113211;28;20241;-60
2023/01/25 14:27:04;;;;;;;22.17;14.13;;;;;;;;;;5113147;28;20218;-59